sensor_id;sensor_type;location;lat;lon;timestamp;P1;durP1;ratioP1;P2;durP2;ratioP2
20928;SDS011;21895;47.072;15.132;2023-04-23T00:01:47;8.60;;;5.20;;
20928;SDS011;21895;47.072;15.132;2023-04-23T00:04:14;10.70;;;6.47;;
20928;SDS011;21895;47.072;15.132;2023-04-23T00:06:45;15.43;;;6.87;;
20928;SDS011;21895;47.072;15.132;2023-04-23T00:09:12;10.23;;;6.53;;
20928;SDS011;21895;47.072;15.132;2023-04-23T00:11:41;8.83;;;5.57;;
20928;SDS011;21895;47.072;15.132;2023-04-23T00:14:08;10.37;;;5.23;;
20928;SDS011;21895;47.072;15.132;2023-04-23T00:16:36;12.50;;;6.23;;
20928;SDS011;21895;47.072;15.132;2023-04-23T00:19:04;12.03;;;6.07;;
20928;SDS011;21895;47.072;15.132;2023-04-23T00:21:30;12.00;;;6.07;;
20928;SDS011;21895;47.072;15.132;2023-04-23T00:23:57;9.37;;;5.73;;
20928;SDS011;21895;47.072;15.132;2023-04-23T00:26:23;11.10;;;5.87;;
20928;SDS011;21895;47.072;15.132;2023-04-23T00:28:50;11.83;;;5.87;;
20928;SDS011;21895;47.072;15.132;2023-04-23T00:31:16;11.80;;;6.10;;
20928;SDS011;21895;47.072;15.132;2023-04-23T00:33:43;10.23;;;5.30;;
20928;SDS011;21895;47.072;15.132;2023-04-23T00:36:10;9.13;;;5.60;;
20928;SDS011;21895;47.072;15.132;2023-04-23T00:38:36;15.07;;;6.40;;
20928;SDS011;21895;47.072;15.132;2023-04-23T00:41:03;9.20;;;5.80;;
20928;SDS011;21895;47.072;15.132;2023-04-23T00:43:30;9.83;;;5.97;;
20928;SDS011;21895;47.072;15.132;2023-04-23T00:45:58;11.43;;;6.10;;
20928;SDS011;21895;47.072;15.132;2023-04-23T00:48:25;9.37;;;5.40;;
20928;SDS011;21895;47.072;15.132;2023-04-23T00:51:02;8.80;;;5.07;;
20928;SDS011;21895;47.072;15.132;2023-04-23T00:53:30;9.30;;;5.10;;
20928;SDS011;21895;47.072;15.132;2023-04-23T00:55:58;10.73;;;5.60;;
20928;SDS011;21895;47.072;15.132;2023-04-23T00:58:31;9.00;;;5.17;;
20928;SDS011;21895;47.072;15.132;2023-04-23T01:00:58;7.70;;;4.67;;
20928;SDS011;21895;47.072;15.132;2023-04-23T01:03:27;8.23;;;4.77;;
20928;SDS011;21895;47.072;15.132;2023-04-23T01:05:54;7.60;;;4.97;;
20928;SDS011;21895;47.072;15.132;2023-04-23T01:08:22;11.87;;;5.07;;
20928;SDS011;21895;47.072;15.132;2023-04-23T01:10:50;10.33;;;5.57;;
20928;SDS011;21895;47.072;15.132;2023-04-23T01:13:19;11.13;;;5.40;;
20928;SDS011;21895;47.072;15.132;2023-04-23T01:15:46;13.20;;;5.90;;
20928;SDS011;21895;47.072;15.132;2023-04-23T01:18:13;10.27;;;5.57;;
20928;SDS011;21895;47.072;15.132;2023-04-23T01:20:39;9.20;;;5.57;;
20928;SDS011;21895;47.072;15.132;2023-04-23T01:23:07;9.47;;;5.80;;
20928;SDS011;21895;47.072;15.132;2023-04-23T01:25:34;10.10;;;5.70;;
20928;SDS011;21895;47.072;15.132;2023-04-23T01:28:00;8.83;;;5.43;;
20928;SDS011;21895;47.072;15.132;2023-04-23T01:30:27;9.17;;;5.33;;
20928;SDS011;21895;47.072;15.132;2023-04-23T01:32:55;8.83;;;5.37;;
20928;SDS011;21895;47.072;15.132;2023-04-23T01:35:23;9.20;;;5.53;;
20928;SDS011;21895;47.072;15.132;2023-04-23T01:37:50;9.90;;;5.10;;
20928;SDS011;21895;47.072;15.132;2023-04-23T01:40:21;8.30;;;5.13;;
20928;SDS011;21895;47.072;15.132;2023-04-23T01:42:48;10.10;;;5.50;;
20928;SDS011;21895;47.072;15.132;2023-04-23T01:45:15;8.10;;;4.97;;
20928;SDS011;21895;47.072;15.132;2023-04-23T01:47:44;9.03;;;4.70;;
20928;SDS011;21895;47.072;15.132;2023-04-23T01:50:12;12.20;;;5.70;;
20928;SDS011;21895;47.072;15.132;2023-04-23T01:52:39;8.67;;;5.37;;
20928;SDS011;21895;47.072;15.132;2023-04-23T01:55:07;11.27;;;5.43;;
20928;SDS011;21895;47.072;15.132;2023-04-23T01:57:34;10.77;;;6.13;;
20928;SDS011;21895;47.072;15.132;2023-04-23T02:00:05;8.90;;;5.33;;
20928;SDS011;21895;47.072;15.132;2023-04-23T02:02:35;8.60;;;5.67;;
20928;SDS011;21895;47.072;15.132;2023-04-23T02:05:05;10.23;;;6.27;;
20928;SDS011;21895;47.072;15.132;2023-04-23T02:07:37;13.03;;;6.03;;
20928;SDS011;21895;47.072;15.132;2023-04-23T02:10:05;12.13;;;5.60;;
20928;SDS011;21895;47.072;15.132;2023-04-23T02:12:32;10.23;;;5.17;;
20928;SDS011;21895;47.072;15.132;2023-04-23T02:15:01;12.83;;;5.47;;
20928;SDS011;21895;47.072;15.132;2023-04-23T02:17:31;12.70;;;6.13;;
20928;SDS011;21895;47.072;15.132;2023-04-23T02:19:57;8.27;;;4.97;;
20928;SDS011;21895;47.072;15.132;2023-04-23T02:22:24;8.03;;;4.90;;
20928;SDS011;21895;47.072;15.132;2023-04-23T02:24:51;12.23;;;6.17;;
20928;SDS011;21895;47.072;15.132;2023-04-23T02:27:19;12.60;;;5.67;;
20928;SDS011;21895;47.072;15.132;2023-04-23T02:29:47;11.67;;;6.17;;
20928;SDS011;21895;47.072;15.132;2023-04-23T02:32:14;10.47;;;5.80;;
20928;SDS011;21895;47.072;15.132;2023-04-23T02:34:41;7.10;;;4.93;;
20928;SDS011;21895;47.072;15.132;2023-04-23T02:37:08;7.27;;;4.60;;
20928;SDS011;21895;47.072;15.132;2023-04-23T02:39:35;10.70;;;5.43;;
20928;SDS011;21895;47.072;15.132;2023-04-23T02:42:03;11.67;;;5.90;;
20928;SDS011;21895;47.072;15.132;2023-04-23T02:44:29;10.83;;;5.83;;
20928;SDS011;21895;47.072;15.132;2023-04-23T02:46:56;8.77;;;5.20;;
20928;SDS011;21895;47.072;15.132;2023-04-23T02:49:23;9.90;;;5.40;;
20928;SDS011;21895;47.072;15.132;2023-04-23T02:51:50;15.17;;;6.30;;
20928;SDS011;21895;47.072;15.132;2023-04-23T02:54:17;8.83;;;5.37;;
20928;SDS011;21895;47.072;15.132;2023-04-23T02:56:43;9.40;;;5.43;;
20928;SDS011;21895;47.072;15.132;2023-04-23T02:59:10;9.20;;;5.67;;
20928;SDS011;21895;47.072;15.132;2023-04-23T03:01:36;11.97;;;6.00;;
20928;SDS011;21895;47.072;15.132;2023-04-23T03:04:03;8.60;;;5.50;;
20928;SDS011;21895;47.072;15.132;2023-04-23T03:06:30;10.97;;;5.43;;
20928;SDS011;21895;47.072;15.132;2023-04-23T03:08:58;12.53;;;5.43;;
20928;SDS011;21895;47.072;15.132;2023-04-23T03:11:25;7.73;;;4.77;;
20928;SDS011;21895;47.072;15.132;2023-04-23T03:13:52;6.83;;;4.57;;
20928;SDS011;21895;47.072;15.132;2023-04-23T03:16:18;7.13;;;4.77;;
20928;SDS011;21895;47.072;15.132;2023-04-23T03:18:45;7.20;;;4.73;;
20928;SDS011;21895;47.072;15.132;2023-04-23T03:21:11;10.33;;;5.50;;
20928;SDS011;21895;47.072;15.132;2023-04-23T03:23:38;9.37;;;5.70;;
20928;SDS011;21895;47.072;15.132;2023-04-23T03:26:04;10.17;;;5.60;;
20928;SDS011;21895;47.072;15.132;2023-04-23T03:28:31;15.13;;;5.70;;
20928;SDS011;21895;47.072;15.132;2023-04-23T03:30:58;9.13;;;5.30;;
20928;SDS011;21895;47.072;15.132;2023-04-23T03:33:24;9.77;;;5.60;;
20928;SDS011;21895;47.072;15.132;2023-04-23T03:35:51;9.03;;;5.97;;
20928;SDS011;21895;47.072;15.132;2023-04-23T03:38:17;8.53;;;5.47;;
20928;SDS011;21895;47.072;15.132;2023-04-23T03:40:44;8.13;;;5.17;;
20928;SDS011;21895;47.072;15.132;2023-04-23T03:43:10;8.73;;;5.07;;
20928;SDS011;21895;47.072;15.132;2023-04-23T03:45:37;7.27;;;4.80;;
20928;SDS011;21895;47.072;15.132;2023-04-23T03:48:03;7.10;;;4.80;;
20928;SDS011;21895;47.072;15.132;2023-04-23T03:50:30;8.00;;;5.30;;
20928;SDS011;21895;47.072;15.132;2023-04-23T03:52:59;9.03;;;4.97;;
20928;SDS011;21895;47.072;15.132;2023-04-23T03:55:25;9.37;;;5.47;;
20928;SDS011;21895;47.072;15.132;2023-04-23T03:57:52;7.97;;;5.23;;
20928;SDS011;21895;47.072;15.132;2023-04-23T04:00:18;9.53;;;5.10;;
20928;SDS011;21895;47.072;15.132;2023-04-23T04:02:46;7.13;;;5.17;;
20928;SDS011;21895;47.072;15.132;2023-04-23T04:05:12;7.90;;;5.43;;
20928;SDS011;21895;47.072;15.132;2023-04-23T04:07:39;12.10;;;5.97;;
20928;SDS011;21895;47.072;15.132;2023-04-23T04:10:06;8.40;;;5.30;;
20928;SDS011;21895;47.072;15.132;2023-04-23T04:12:33;14.07;;;5.43;;
20928;SDS011;21895;47.072;15.132;2023-04-23T04:15:03;9.37;;;5.90;;
20928;SDS011;21895;47.072;15.132;2023-04-23T04:17:30;10.07;;;5.33;;
20928;SDS011;21895;47.072;15.132;2023-04-23T04:19:56;10.03;;;5.60;;
20928;SDS011;21895;47.072;15.132;2023-04-23T04:22:23;8.40;;;5.33;;
20928;SDS011;21895;47.072;15.132;2023-04-23T04:24:49;9.03;;;5.90;;
20928;SDS011;21895;47.072;15.132;2023-04-23T04:27:17;12.43;;;5.93;;
20928;SDS011;21895;47.072;15.132;2023-04-23T04:29:44;7.63;;;5.10;;
20928;SDS011;21895;47.072;15.132;2023-04-23T04:32:10;10.23;;;5.50;;
20928;SDS011;21895;47.072;15.132;2023-04-23T04:34:38;11.10;;;5.93;;
20928;SDS011;21895;47.072;15.132;2023-04-23T04:37:05;9.67;;;5.97;;
20928;SDS011;21895;47.072;15.132;2023-04-23T04:39:32;8.77;;;5.93;;
20928;SDS011;21895;47.072;15.132;2023-04-23T04:41:58;9.53;;;5.67;;
20928;SDS011;21895;47.072;15.132;2023-04-23T04:44:27;9.93;;;5.57;;
20928;SDS011;21895;47.072;15.132;2023-04-23T04:46:55;9.90;;;5.70;;
20928;SDS011;21895;47.072;15.132;2023-04-23T04:49:21;12.97;;;5.73;;
20928;SDS011;21895;47.072;15.132;2023-04-23T04:51:48;8.10;;;5.87;;
20928;SDS011;21895;47.072;15.132;2023-04-23T04:54:14;8.80;;;5.40;;
20928;SDS011;21895;47.072;15.132;2023-04-23T04:56:41;10.03;;;5.73;;
20928;SDS011;21895;47.072;15.132;2023-04-23T04:59:07;9.70;;;6.10;;
20928;SDS011;21895;47.072;15.132;2023-04-23T05:01:34;10.67;;;6.33;;
20928;SDS011;21895;47.072;15.132;2023-04-23T05:04:01;9.73;;;6.17;;
20928;SDS011;21895;47.072;15.132;2023-04-23T05:06:28;9.27;;;5.80;;
20928;SDS011;21895;47.072;15.132;2023-04-23T05:08:56;9.63;;;6.27;;
20928;SDS011;21895;47.072;15.132;2023-04-23T05:11:23;9.30;;;6.30;;
20928;SDS011;21895;47.072;15.132;2023-04-23T05:13:49;15.43;;;7.37;;
20928;SDS011;21895;47.072;15.132;2023-04-23T05:16:16;8.93;;;5.70;;
20928;SDS011;21895;47.072;15.132;2023-04-23T05:18:43;9.13;;;5.83;;
20928;SDS011;21895;47.072;15.132;2023-04-23T05:21:10;11.63;;;6.30;;
20928;SDS011;21895;47.072;15.132;2023-04-23T05:23:37;11.37;;;6.10;;
20928;SDS011;21895;47.072;15.132;2023-04-23T05:26:03;13.37;;;5.97;;
20928;SDS011;21895;47.072;15.132;2023-04-23T05:28:30;11.07;;;6.50;;
20928;SDS011;21895;47.072;15.132;2023-04-23T05:30:57;8.97;;;5.83;;
20928;SDS011;21895;47.072;15.132;2023-04-23T05:33:23;11.50;;;6.10;;
20928;SDS011;21895;47.072;15.132;2023-04-23T05:35:58;11.37;;;5.77;;
20928;SDS011;21895;47.072;15.132;2023-04-23T05:38:24;11.03;;;5.57;;
20928;SDS011;21895;47.072;15.132;2023-04-23T05:40:51;10.47;;;6.40;;
20928;SDS011;21895;47.072;15.132;2023-04-23T05:43:18;14.47;;;5.50;;
20928;SDS011;21895;47.072;15.132;2023-04-23T05:45:44;14.03;;;5.97;;
20928;SDS011;21895;47.072;15.132;2023-04-23T05:48:11;10.73;;;5.70;;
20928;SDS011;21895;47.072;15.132;2023-04-23T05:50:37;12.20;;;6.20;;
20928;SDS011;21895;47.072;15.132;2023-04-23T05:53:04;12.80;;;6.30;;
20928;SDS011;21895;47.072;15.132;2023-04-23T05:55:30;16.33;;;5.93;;
20928;SDS011;21895;47.072;15.132;2023-04-23T05:57:57;14.53;;;6.20;;
20928;SDS011;21895;47.072;15.132;2023-04-23T06:00:23;10.23;;;5.90;;
20928;SDS011;21895;47.072;15.132;2023-04-23T06:02:50;12.93;;;6.00;;
20928;SDS011;21895;47.072;15.132;2023-04-23T06:05:17;11.97;;;5.87;;
20928;SDS011;21895;47.072;15.132;2023-04-23T06:07:44;12.00;;;6.17;;
20928;SDS011;21895;47.072;15.132;2023-04-23T06:10:10;10.10;;;6.10;;
20928;SDS011;21895;47.072;15.132;2023-04-23T06:12:37;14.50;;;5.50;;
20928;SDS011;21895;47.072;15.132;2023-04-23T06:15:05;11.03;;;6.50;;
20928;SDS011;21895;47.072;15.132;2023-04-23T06:17:33;10.03;;;5.63;;
20928;SDS011;21895;47.072;15.132;2023-04-23T06:20:01;12.37;;;6.43;;
20928;SDS011;21895;47.072;15.132;2023-04-23T06:22:29;12.57;;;6.17;;
20928;SDS011;21895;47.072;15.132;2023-04-23T06:24:56;12.10;;;6.50;;
20928;SDS011;21895;47.072;15.132;2023-04-23T06:27:23;8.13;;;6.10;;
20928;SDS011;21895;47.072;15.132;2023-04-23T06:29:51;11.07;;;6.60;;
20928;SDS011;21895;47.072;15.132;2023-04-23T06:32:18;13.13;;;6.37;;
20928;SDS011;21895;47.072;15.132;2023-04-23T06:34:46;13.93;;;6.33;;
20928;SDS011;21895;47.072;15.132;2023-04-23T06:37:27;19.83;;;6.43;;
20928;SDS011;21895;47.072;15.132;2023-04-23T06:39:55;16.00;;;6.27;;
20928;SDS011;21895;47.072;15.132;2023-04-23T06:42:23;13.17;;;6.77;;
20928;SDS011;21895;47.072;15.132;2023-04-23T06:44:49;15.27;;;6.03;;
20928;SDS011;21895;47.072;15.132;2023-04-23T06:47:16;12.03;;;6.37;;
20928;SDS011;21895;47.072;15.132;2023-04-23T06:49:44;9.53;;;6.00;;
20928;SDS011;21895;47.072;15.132;2023-04-23T06:52:10;9.07;;;6.23;;
20928;SDS011;21895;47.072;15.132;2023-04-23T06:54:37;13.00;;;6.40;;
20928;SDS011;21895;47.072;15.132;2023-04-23T06:57:04;17.23;;;6.83;;
20928;SDS011;21895;47.072;15.132;2023-04-23T06:59:30;13.50;;;7.00;;
20928;SDS011;21895;47.072;15.132;2023-04-23T07:01:57;10.77;;;6.10;;
20928;SDS011;21895;47.072;15.132;2023-04-23T07:04:23;12.32;;;6.62;;
20928;SDS011;21895;47.072;15.132;2023-04-23T07:06:50;11.93;;;6.55;;
20928;SDS011;21895;47.072;15.132;2023-04-23T07:09:17;12.23;;;6.68;;
20928;SDS011;21895;47.072;15.132;2023-04-23T07:11:43;9.32;;;6.25;;
20928;SDS011;21895;47.072;15.132;2023-04-23T07:14:10;14.68;;;6.85;;
20928;SDS011;21895;47.072;15.132;2023-04-23T07:16:36;11.52;;;6.25;;
20928;SDS011;21895;47.072;15.132;2023-04-23T07:19:03;8.13;;;5.25;;
20928;SDS011;21895;47.072;15.132;2023-04-23T07:21:29;11.18;;;5.78;;
20928;SDS011;21895;47.072;15.132;2023-04-23T07:23:57;9.75;;;5.40;;
20928;SDS011;21895;47.072;15.132;2023-04-23T07:26:36;10.27;;;5.97;;
20928;SDS011;21895;47.072;15.132;2023-04-23T07:29:03;10.90;;;6.00;;
20928;SDS011;21895;47.072;15.132;2023-04-23T07:31:32;8.30;;;5.82;;
20928;SDS011;21895;47.072;15.132;2023-04-23T07:33:59;17.15;;;6.03;;
20928;SDS011;21895;47.072;15.132;2023-04-23T07:36:25;10.90;;;6.60;;
20928;SDS011;21895;47.072;15.132;2023-04-23T07:38:52;12.65;;;6.35;;
20928;SDS011;21895;47.072;15.132;2023-04-23T07:41:19;13.90;;;6.20;;
20928;SDS011;21895;47.072;15.132;2023-04-23T07:43:45;9.73;;;6.10;;
20928;SDS011;21895;47.072;15.132;2023-04-23T07:46:12;20.25;;;6.32;;
20928;SDS011;21895;47.072;15.132;2023-04-23T07:48:39;10.30;;;5.57;;
20928;SDS011;21895;47.072;15.132;2023-04-23T07:51:06;7.20;;;5.15;;
20928;SDS011;21895;47.072;15.132;2023-04-23T07:53:33;13.23;;;5.97;;
20928;SDS011;21895;47.072;15.132;2023-04-23T07:56:00;9.38;;;6.12;;
20928;SDS011;21895;47.072;15.132;2023-04-23T07:58:26;14.55;;;6.53;;
20928;SDS011;21895;47.072;15.132;2023-04-23T08:00:53;19.27;;;6.22;;
20928;SDS011;21895;47.072;15.132;2023-04-23T08:03:19;22.98;;;6.05;;
20928;SDS011;21895;47.072;15.132;2023-04-23T08:05:48;12.63;;;6.10;;
20928;SDS011;21895;47.072;15.132;2023-04-23T08:08:15;11.95;;;6.12;;
20928;SDS011;21895;47.072;15.132;2023-04-23T08:10:42;14.13;;;6.28;;
20928;SDS011;21895;47.072;15.132;2023-04-23T08:13:08;11.00;;;5.93;;
20928;SDS011;21895;47.072;15.132;2023-04-23T08:15:35;12.35;;;5.93;;
20928;SDS011;21895;47.072;15.132;2023-04-23T08:18:02;10.35;;;5.53;;
20928;SDS011;21895;47.072;15.132;2023-04-23T08:20:29;13.35;;;5.37;;
20928;SDS011;21895;47.072;15.132;2023-04-23T08:22:56;8.48;;;5.57;;
20928;SDS011;21895;47.072;15.132;2023-04-23T08:25:23;10.15;;;5.37;;
20928;SDS011;21895;47.072;15.132;2023-04-23T08:27:50;8.02;;;5.57;;
20928;SDS011;21895;47.072;15.132;2023-04-23T08:30:16;13.62;;;5.57;;
20928;SDS011;21895;47.072;15.132;2023-04-23T08:32:43;10.52;;;4.93;;
20928;SDS011;21895;47.072;15.132;2023-04-23T08:35:14;11.30;;;5.70;;
20928;SDS011;21895;47.072;15.132;2023-04-23T08:37:41;7.30;;;5.07;;
20928;SDS011;21895;47.072;15.132;2023-04-23T08:40:08;8.88;;;5.22;;
20928;SDS011;21895;47.072;15.132;2023-04-23T08:42:46;7.70;;;4.95;;
20928;SDS011;21895;47.072;15.132;2023-04-23T08:45:26;14.27;;;4.97;;
20928;SDS011;21895;47.072;15.132;2023-04-23T08:47:58;15.00;;;5.70;;
20928;SDS011;21895;47.072;15.132;2023-04-23T08:50:28;8.73;;;4.82;;
20928;SDS011;21895;47.072;15.132;2023-04-23T08:52:55;6.80;;;5.28;;
20928;SDS011;21895;47.072;15.132;2023-04-23T08:55:23;9.68;;;5.53;;
20928;SDS011;21895;47.072;15.132;2023-04-23T08:57:50;7.97;;;5.43;;
20928;SDS011;21895;47.072;15.132;2023-04-23T09:00:18;11.10;;;5.72;;
20928;SDS011;21895;47.072;15.132;2023-04-23T09:02:47;11.68;;;5.37;;
20928;SDS011;21895;47.072;15.132;2023-04-23T09:05:14;11.65;;;5.60;;
20928;SDS011;21895;47.072;15.132;2023-04-23T09:07:41;10.25;;;5.10;;
20928;SDS011;21895;47.072;15.132;2023-04-23T09:10:09;8.43;;;5.32;;
20928;SDS011;21895;47.072;15.132;2023-04-23T09:12:38;7.53;;;5.32;;
20928;SDS011;21895;47.072;15.132;2023-04-23T09:15:07;7.95;;;5.40;;
20928;SDS011;21895;47.072;15.132;2023-04-23T09:17:37;11.60;;;5.22;;
20928;SDS011;21895;47.072;15.132;2023-04-23T09:20:11;11.15;;;5.80;;
20928;SDS011;21895;47.072;15.132;2023-04-23T09:22:39;8.00;;;5.22;;
20928;SDS011;21895;47.072;15.132;2023-04-23T09:25:23;9.85;;;5.12;;
20928;SDS011;21895;47.072;15.132;2023-04-23T09:27:50;8.95;;;4.65;;
20928;SDS011;21895;47.072;15.132;2023-04-23T09:30:17;12.30;;;4.75;;
20928;SDS011;21895;47.072;15.132;2023-04-23T09:32:44;13.25;;;5.47;;
20928;SDS011;21895;47.072;15.132;2023-04-23T09:35:14;7.03;;;4.93;;
20928;SDS011;21895;47.072;15.132;2023-04-23T09:37:42;8.43;;;4.87;;
20928;SDS011;21895;47.072;15.132;2023-04-23T09:40:18;7.28;;;4.80;;
20928;SDS011;21895;47.072;15.132;2023-04-23T09:42:48;8.88;;;4.50;;
20928;SDS011;21895;47.072;15.132;2023-04-23T09:45:20;7.68;;;4.40;;
20928;SDS011;21895;47.072;15.132;2023-04-23T09:47:51;7.50;;;4.50;;
20928;SDS011;21895;47.072;15.132;2023-04-23T09:50:30;10.80;;;4.53;;
20928;SDS011;21895;47.072;15.132;2023-04-23T09:53:03;6.30;;;4.53;;
20928;SDS011;21895;47.072;15.132;2023-04-23T09:55:31;12.48;;;4.43;;
20928;SDS011;21895;47.072;15.132;2023-04-23T09:58:11;4.78;;;4.00;;
20928;SDS011;21895;47.072;15.132;2023-04-23T10:00:40;8.40;;;4.45;;
20928;SDS011;21895;47.072;15.132;2023-04-23T10:03:07;8.23;;;4.45;;
20928;SDS011;21895;47.072;15.132;2023-04-23T10:05:38;8.77;;;4.22;;
20928;SDS011;21895;47.072;15.132;2023-04-23T10:08:26;13.23;;;4.22;;
20928;SDS011;21895;47.072;15.132;2023-04-23T10:10:53;4.97;;;4.25;;
20928;SDS011;21895;47.072;15.132;2023-04-23T10:13:44;5.53;;;3.92;;
20928;SDS011;21895;47.072;15.132;2023-04-23T10:16:11;7.00;;;4.40;;
20928;SDS011;21895;47.072;15.132;2023-04-23T10:18:50;11.60;;;5.30;;
20928;SDS011;21895;47.072;15.132;2023-04-23T10:21:18;6.80;;;5.15;;
20928;SDS011;21895;47.072;15.132;2023-04-23T10:23:55;12.95;;;5.00;;
20928;SDS011;21895;47.072;15.132;2023-04-23T10:26:26;7.35;;;4.85;;
20928;SDS011;21895;47.072;15.132;2023-04-23T10:28:57;8.55;;;5.25;;
20928;SDS011;21895;47.072;15.132;2023-04-23T10:31:27;7.30;;;5.15;;
20928;SDS011;21895;47.072;15.132;2023-04-23T10:33:57;9.63;;;4.85;;
20928;SDS011;21895;47.072;15.132;2023-04-23T10:36:26;7.43;;;4.62;;
20928;SDS011;21895;47.072;15.132;2023-04-23T10:38:53;6.37;;;4.62;;
20928;SDS011;21895;47.072;15.132;2023-04-23T10:41:27;11.25;;;5.03;;
20928;SDS011;21895;47.072;15.132;2023-04-23T10:44:01;8.57;;;4.70;;
20928;SDS011;21895;47.072;15.132;2023-04-23T10:46:30;8.90;;;4.82;;
20928;SDS011;21895;47.072;15.132;2023-04-23T10:49:10;6.50;;;4.18;;
20928;SDS011;21895;47.072;15.132;2023-04-23T10:51:41;6.70;;;4.53;;
20928;SDS011;21895;47.072;15.132;2023-04-23T10:54:47;6.50;;;4.70;;
20928;SDS011;21895;47.072;15.132;2023-04-23T10:57:24;6.25;;;4.70;;
20928;SDS011;21895;47.072;15.132;2023-04-23T10:59:51;8.07;;;4.53;;
20928;SDS011;21895;47.072;15.132;2023-04-23T11:02:22;6.55;;;4.47;;
20928;SDS011;21895;47.072;15.132;2023-04-23T11:04:53;5.95;;;4.55;;
20928;SDS011;21895;47.072;15.132;2023-04-23T11:07:31;6.22;;;3.80;;
20928;SDS011;21895;47.072;15.132;2023-04-23T11:09:59;5.43;;;4.03;;
20928;SDS011;21895;47.072;15.132;2023-04-23T11:12:39;7.22;;;4.18;;
20928;SDS011;21895;47.072;15.132;2023-04-23T11:15:10;8.55;;;4.40;;
20928;SDS011;21895;47.072;15.132;2023-04-23T11:17:58;8.90;;;3.58;;
20928;SDS011;21895;47.072;15.132;2023-04-23T11:20:25;5.37;;;3.53;;
20928;SDS011;21895;47.072;15.132;2023-04-23T11:22:51;5.10;;;3.90;;
20928;SDS011;21895;47.072;15.132;2023-04-23T11:25:19;5.75;;;4.28;;
20928;SDS011;21895;47.072;15.132;2023-04-23T11:27:51;4.97;;;3.80;;
20928;SDS011;21895;47.072;15.132;2023-04-23T11:30:21;5.93;;;4.22;;
20928;SDS011;21895;47.072;15.132;2023-04-23T11:32:51;6.05;;;3.90;;
20928;SDS011;21895;47.072;15.132;2023-04-23T11:35:21;4.22;;;3.42;;
20928;SDS011;21895;47.072;15.132;2023-04-23T11:37:53;6.32;;;4.00;;
20928;SDS011;21895;47.072;15.132;2023-04-23T11:40:20;7.30;;;4.15;;
20928;SDS011;21895;47.072;15.132;2023-04-23T11:42:47;12.10;;;4.20;;
20928;SDS011;21895;47.072;15.132;2023-04-23T11:45:16;7.15;;;4.03;;
20928;SDS011;21895;47.072;15.132;2023-04-23T11:47:45;6.28;;;4.30;;
20928;SDS011;21895;47.072;15.132;2023-04-23T11:50:27;6.43;;;4.47;;
20928;SDS011;21895;47.072;15.132;2023-04-23T11:53:18;9.20;;;5.18;;
20928;SDS011;21895;47.072;15.132;2023-04-23T11:55:48;7.87;;;4.90;;
20928;SDS011;21895;47.072;15.132;2023-04-23T11:58:17;6.70;;;4.68;;
20928;SDS011;21895;47.072;15.132;2023-04-23T12:00:44;8.25;;;5.03;;
20928;SDS011;21895;47.072;15.132;2023-04-23T12:03:10;9.02;;;4.68;;
20928;SDS011;21895;47.072;15.132;2023-04-23T12:05:39;7.90;;;4.40;;
20928;SDS011;21895;47.072;15.132;2023-04-23T12:08:09;11.35;;;4.90;;
20928;SDS011;21895;47.072;15.132;2023-04-23T12:10:45;5.37;;;4.35;;
20928;SDS011;21895;47.072;15.132;2023-04-23T12:13:20;12.48;;;4.93;;
20928;SDS011;21895;47.072;15.132;2023-04-23T12:15:50;6.97;;;4.85;;
20928;SDS011;21895;47.072;15.132;2023-04-23T12:18:27;8.63;;;4.30;;
20928;SDS011;21895;47.072;15.132;2023-04-23T12:21:05;6.53;;;4.22;;
20928;SDS011;21895;47.072;15.132;2023-04-23T12:23:39;13.25;;;4.70;;
20928;SDS011;21895;47.072;15.132;2023-04-23T12:26:13;5.53;;;4.00;;
20928;SDS011;21895;47.072;15.132;2023-04-23T12:28:50;7.12;;;4.93;;
20928;SDS011;21895;47.072;15.132;2023-04-23T12:31:26;6.62;;;4.15;;
20928;SDS011;21895;47.072;15.132;2023-04-23T12:34:04;5.65;;;4.50;;
20928;SDS011;21895;47.072;15.132;2023-04-23T12:36:34;9.85;;;4.62;;
20928;SDS011;21895;47.072;15.132;2023-04-23T12:42:00;6.20;;;3.92;;
20928;SDS011;21895;47.072;15.132;2023-04-23T12:44:32;8.88;;;4.47;;
20928;SDS011;21895;47.072;15.132;2023-04-23T12:47:00;6.60;;;4.12;;
20928;SDS011;21895;47.072;15.132;2023-04-23T12:49:30;8.95;;;4.43;;
20928;SDS011;21895;47.072;15.132;2023-04-23T12:51:58;7.57;;;4.15;;
20928;SDS011;21895;47.072;15.132;2023-04-23T12:54:27;5.78;;;4.28;;
20928;SDS011;21895;47.072;15.132;2023-04-23T12:56:57;4.90;;;4.07;;
20928;SDS011;21895;47.072;15.132;2023-04-23T12:59:25;9.73;;;4.45;;
20928;SDS011;21895;47.072;15.132;2023-04-23T13:01:51;8.10;;;4.53;;
20928;SDS011;21895;47.072;15.132;2023-04-23T13:04:18;5.82;;;4.55;;
20928;SDS011;21895;47.072;15.132;2023-04-23T13:06:45;6.90;;;4.93;;
20928;SDS011;21895;47.072;15.132;2023-04-23T13:09:11;9.45;;;5.15;;
20928;SDS011;21895;47.072;15.132;2023-04-23T13:11:38;5.62;;;4.22;;
20928;SDS011;21895;47.072;15.132;2023-04-23T13:14:06;9.77;;;5.07;;
20928;SDS011;21895;47.072;15.132;2023-04-23T13:16:34;6.93;;;4.72;;
20928;SDS011;21895;47.072;15.132;2023-04-23T13:19:01;9.40;;;5.05;;
20928;SDS011;21895;47.072;15.132;2023-04-23T13:21:28;5.57;;;4.30;;
20928;SDS011;21895;47.072;15.132;2023-04-23T13:23:55;7.60;;;5.25;;
20928;SDS011;21895;47.072;15.132;2023-04-23T13:26:22;6.43;;;4.62;;
20928;SDS011;21895;47.072;15.132;2023-04-23T13:28:49;6.32;;;4.57;;
20928;SDS011;21895;47.072;15.132;2023-04-23T13:31:15;10.80;;;4.85;;
20928;SDS011;21895;47.072;15.132;2023-04-23T13:33:42;7.97;;;4.80;;
20928;SDS011;21895;47.072;15.132;2023-04-23T13:36:08;9.43;;;4.75;;
20928;SDS011;21895;47.072;15.132;2023-04-23T13:38:35;7.05;;;5.15;;
20928;SDS011;21895;47.072;15.132;2023-04-23T13:41:01;11.15;;;5.10;;
20928;SDS011;21895;47.072;15.132;2023-04-23T13:43:28;9.07;;;4.60;;
20928;SDS011;21895;47.072;15.132;2023-04-23T13:45:54;5.15;;;4.65;;
20928;SDS011;21895;47.072;15.132;2023-04-23T13:48:21;7.62;;;4.68;;
20928;SDS011;21895;47.072;15.132;2023-04-23T13:50:53;8.70;;;4.90;;
20928;SDS011;21895;47.072;15.132;2023-04-23T13:53:20;6.20;;;4.65;;
20928;SDS011;21895;47.072;15.132;2023-04-23T13:55:47;5.90;;;4.35;;
20928;SDS011;21895;47.072;15.132;2023-04-23T13:58:13;8.50;;;4.70;;
20928;SDS011;21895;47.072;15.132;2023-04-23T14:00:40;6.82;;;4.55;;
20928;SDS011;21895;47.072;15.132;2023-04-23T14:03:08;8.25;;;4.50;;
20928;SDS011;21895;47.072;15.132;2023-04-23T14:05:34;8.70;;;4.65;;
20928;SDS011;21895;47.072;15.132;2023-04-23T14:08:01;10.77;;;4.70;;
20928;SDS011;21895;47.072;15.132;2023-04-23T14:10:28;8.52;;;4.57;;
20928;SDS011;21895;47.072;15.132;2023-04-23T14:12:54;10.00;;;4.47;;
20928;SDS011;21895;47.072;15.132;2023-04-23T14:15:21;5.47;;;4.05;;
20928;SDS011;21895;47.072;15.132;2023-04-23T14:17:48;13.82;;;4.03;;
20928;SDS011;21895;47.072;15.132;2023-04-23T14:20:14;8.20;;;4.68;;
20928;SDS011;21895;47.072;15.132;2023-04-23T14:22:47;6.90;;;4.65;;
20928;SDS011;21895;47.072;15.132;2023-04-23T14:25:23;7.53;;;4.85;;
20928;SDS011;21895;47.072;15.132;2023-04-23T14:31:09;6.22;;;4.40;;
20928;SDS011;21895;47.072;15.132;2023-04-23T14:33:36;8.20;;;4.57;;
20928;SDS011;21895;47.072;15.132;2023-04-23T14:36:02;6.95;;;4.70;;
20928;SDS011;21895;47.072;15.132;2023-04-23T14:38:29;12.32;;;4.25;;
20928;SDS011;21895;47.072;15.132;2023-04-23T14:40:56;5.45;;;4.62;;
20928;SDS011;21895;47.072;15.132;2023-04-23T14:43:22;8.07;;;4.45;;